createdAt,value
2022-10-17T00:00:49.161Z,3.95
2022-10-17T00:03:16.804Z,4.15
2022-10-17T00:05:46.604Z,4.10
2022-10-17T00:08:15.875Z,4.43
2022-10-17T00:10:43.037Z,4.05
2022-10-17T00:13:11.007Z,4.20
2022-10-17T00:15:38.505Z,4.03
2022-10-17T00:18:05.629Z,4.53
2022-10-17T00:20:35.930Z,3.85
2022-10-17T00:23:02.978Z,4.35
2022-10-17T00:25:30.144Z,4.70
2022-10-17T00:27:57.181Z,3.95
2022-10-17T00:30:24.282Z,4.88
2022-10-17T00:32:51.555Z,4.50
2022-10-17T00:35:18.733Z,4.50
2022-10-17T00:37:46.039Z,4.22
2022-10-17T00:40:13.566Z,4.20
2022-10-17T00:42:40.711Z,4.88
2022-10-17T00:45:18.148Z,4.88
2022-10-17T00:48:03.971Z,4.55
2022-10-17T00:50:31.948Z,4.78
2022-10-17T00:53:02.999Z,4.40
2022-10-17T00:55:39.512Z,4.55
2022-10-17T00:58:06.894Z,4.30
2022-10-17T01:00:36.954Z,4.30
2022-10-17T01:03:05.328Z,4.40
2022-10-17T01:05:33.021Z,4.60
2022-10-17T01:08:00.692Z,4.85
2022-10-17T01:10:48.831Z,4.15
2022-10-17T01:13:28.846Z,4.57
2022-10-17T01:16:33.566Z,4.53
2022-10-17T01:19:34.648Z,4.90
2022-10-17T01:22:27.805Z,5.03
2022-10-17T01:25:22.041Z,4.68
2022-10-17T01:28:25.263Z,4.40
2022-10-17T01:31:13.863Z,4.75
2022-10-17T01:33:59.789Z,4.82
2022-10-17T01:36:44.926Z,5.10
2022-10-17T01:39:54.303Z,4.97
2022-10-17T01:42:47.269Z,4.85
2022-10-17T01:45:25.821Z,4.88
2022-10-17T01:47:54.668Z,5.25
2022-10-17T01:50:31.651Z,5.03
2022-10-17T01:53:24.456Z,4.88
2022-10-17T01:55:54.323Z,4.80
2022-10-17T01:58:32.194Z,5.25
2022-10-17T02:01:05.555Z,5.38
2022-10-17T02:03:34.541Z,5.53
2022-10-17T02:06:02.169Z,5.30
2022-10-17T02:08:43.202Z,5.20
2022-10-17T02:11:16.820Z,5.75
2022-10-17T02:14:31.970Z,5.22
2022-10-17T02:17:35.076Z,5.60
2022-10-17T02:20:19.457Z,5.65
2022-10-17T02:23:03.587Z,6.60
2022-10-17T02:25:46.111Z,6.70
2022-10-17T02:28:30.081Z,6.97
2022-10-17T02:31:14.952Z,7.10
2022-10-17T02:36:24.668Z,7.85
2022-10-17T02:38:54.761Z,6.95
2022-10-17T02:41:24.066Z,7.95
2022-10-17T02:43:53.977Z,8.27
2022-10-17T02:46:27.457Z,7.85
2022-10-17T02:49:17.638Z,8.55
2022-10-17T02:52:05.942Z,8.10
2022-10-17T02:55:00.551Z,8.57
2022-10-17T02:58:12.711Z,8.23
2022-10-17T03:00:41.174Z,8.65
2022-10-17T03:03:27.504Z,8.68
2022-10-17T03:05:54.871Z,8.63
2022-10-17T03:08:25.477Z,8.65
2022-10-17T03:10:52.733Z,8.80
2022-10-17T03:13:21.770Z,8.20
2022-10-17T03:15:50.174Z,9.15
2022-10-17T03:18:17.535Z,9.25
2022-10-17T03:20:46.097Z,8.93
2022-10-17T03:23:13.518Z,9.35
2022-10-17T03:25:41.534Z,8.82
2022-10-17T03:28:11.230Z,9.57
2022-10-17T03:30:39.071Z,9.25
2022-10-17T03:33:06.652Z,7.43
2022-10-17T03:35:33.796Z,9.63
2022-10-17T03:38:00.947Z,9.98
2022-10-17T03:40:29.881Z,9.63
2022-10-17T03:42:57.101Z,9.48
2022-10-17T03:45:24.434Z,9.50
2022-10-17T03:47:53.081Z,9.43
2022-10-17T03:50:20.199Z,9.82
2022-10-17T03:52:49.657Z,9.85
2022-10-17T03:55:18.134Z,10.38
2022-10-17T03:57:45.696Z,10.73
2022-10-17T04:00:14.993Z,10.63
2022-10-17T04:02:42.199Z,10.65
2022-10-17T04:05:14.890Z,10.73
2022-10-17T04:07:42.100Z,10.90
2022-10-17T04:10:10.935Z,10.68
2022-10-17T04:12:38.429Z,10.32
2022-10-17T04:15:06.921Z,11.20
2022-10-17T04:17:37.325Z,10.70
2022-10-17T04:20:08.878Z,11.75
2022-10-17T04:22:36.046Z,11.45
2022-10-17T04:25:03.578Z,11.70
2022-10-17T04:27:36.035Z,11.75
2022-10-17T04:30:03.767Z,11.63
2022-10-17T04:32:38.642Z,11.30
2022-10-17T04:35:20.260Z,11.38
2022-10-17T04:37:52.388Z,11.40
2022-10-17T04:40:20.951Z,11.23
2022-10-17T04:42:48.280Z,12.05
2022-10-17T04:45:20.090Z,11.70
2022-10-17T04:47:49.903Z,11.40
2022-10-17T04:50:17.305Z,11.52
2022-10-17T04:53:03.156Z,12.45
2022-10-17T04:55:30.501Z,11.80
2022-10-17T04:57:57.717Z,11.95
2022-10-17T05:00:24.891Z,12.43
2022-10-17T05:02:58.930Z,11.65
2022-10-17T05:05:26.884Z,12.40
2022-10-17T05:07:55.758Z,12.27
2022-10-17T05:10:26.066Z,11.30
2022-10-17T05:12:54.792Z,12.07
2022-10-17T05:15:25.852Z,12.27
2022-10-17T05:17:56.684Z,12.60
2022-10-17T05:20:25.621Z,12.45
2022-10-17T05:22:52.841Z,12.38
2022-10-17T05:25:21.028Z,13.18
2022-10-17T05:27:48.011Z,12.32
2022-10-17T05:30:15.781Z,11.80
2022-10-17T05:32:43.153Z,11.93
2022-10-17T05:35:10.247Z,11.55
2022-10-17T05:37:38.902Z,11.98
2022-10-17T05:40:07.717Z,10.85
2022-10-17T05:42:35.042Z,10.43
2022-10-17T05:45:02.963Z,11.18
2022-10-17T05:47:30.762Z,11.35
2022-10-17T05:49:58.157Z,12.05
2022-10-17T05:52:34.996Z,11.45
2022-10-17T05:55:15.339Z,12.13
2022-10-17T05:57:42.487Z,12.18
2022-10-17T06:00:15.171Z,11.38
2022-10-17T06:02:45.824Z,11.27
2022-10-17T06:05:15.334Z,11.55
2022-10-17T06:07:42.904Z,11.48
2022-10-17T06:10:12.939Z,12.02
2022-10-17T06:12:40.207Z,11.80
2022-10-17T06:15:08.511Z,11.55
2022-10-17T06:17:36.456Z,11.20
2022-10-17T06:20:04.425Z,10.95
2022-10-17T06:22:32.020Z,11.52
2022-10-17T06:25:01.272Z,10.70
2022-10-17T06:27:28.493Z,11.75
2022-10-17T06:29:55.678Z,11.18
2022-10-17T06:32:22.888Z,11.20
2022-10-17T06:34:51.035Z,10.70
2022-10-17T06:37:18.929Z,10.82
2022-10-17T06:39:48.437Z,11.27
2022-10-17T06:42:19.881Z,11.02
2022-10-17T06:44:54.013Z,11.25
2022-10-17T06:47:21.215Z,10.80
2022-10-17T06:49:49.932Z,10.65
2022-10-17T06:52:31.716Z,10.65
2022-10-17T06:55:22.608Z,10.23
2022-10-17T06:58:02.725Z,10.82
2022-10-17T07:00:48.622Z,10.35
2022-10-17T07:03:17.329Z,9.70
2022-10-17T07:05:52.458Z,10.43
2022-10-17T07:08:19.818Z,9.80
2022-10-17T07:10:47.230Z,9.70
2022-10-17T07:13:15.218Z,9.77
2022-10-17T07:15:42.394Z,9.55
2022-10-17T07:18:10.205Z,8.88
2022-10-17T07:20:37.614Z,9.88
2022-10-17T07:23:04.999Z,9.90
2022-10-17T07:25:34.171Z,10.25
2022-10-17T07:28:06.825Z,9.73
2022-10-17T07:30:34.060Z,10.32
2022-10-17T07:33:09.000Z,9.50
2022-10-17T07:35:40.917Z,9.60
2022-10-17T07:38:08.561Z,9.73
2022-10-17T07:40:35.805Z,9.77
2022-10-17T07:43:03.255Z,9.02
2022-10-17T07:45:31.512Z,8.85
2022-10-17T07:47:58.737Z,10.07
2022-10-17T07:50:26.403Z,9.02
2022-10-17T07:52:53.562Z,8.57
2022-10-17T07:55:20.767Z,9.05
2022-10-17T07:57:47.863Z,8.57
2022-10-17T08:00:15.187Z,9.13
2022-10-17T08:02:42.969Z,8.48
2022-10-17T08:05:10.098Z,8.48
2022-10-17T08:07:37.312Z,8.20
2022-10-17T08:10:05.080Z,8.20
2022-10-17T08:12:34.523Z,7.93
2022-10-17T08:15:02.132Z,8.32
2022-10-17T08:17:29.375Z,7.90
2022-10-17T08:19:56.399Z,7.35
2022-10-17T08:22:24.540Z,7.20
2022-10-17T08:24:51.662Z,7.13
2022-10-17T08:27:24.246Z,6.93
2022-10-17T08:29:54.773Z,7.43
2022-10-17T08:32:25.780Z,7.00
2022-10-17T08:34:54.199Z,6.75
2022-10-17T08:37:22.450Z,6.68
2022-10-17T08:39:49.550Z,7.10
2022-10-17T08:42:31.517Z,7.13
2022-10-17T08:45:10.822Z,7.63
2022-10-17T08:47:52.190Z,7.30
2022-10-17T08:50:22.045Z,7.28
2022-10-17T08:52:54.753Z,6.60
2022-10-17T08:55:37.876Z,7.20
2022-10-17T08:58:38.113Z,7.22
2022-10-17T09:01:36.188Z,6.45
2022-10-17T09:04:29.471Z,6.55
2022-10-17T09:07:46.098Z,6.47
2022-10-17T09:10:43.315Z,6.32
2022-10-17T09:13:38.848Z,7.10
2022-10-17T09:16:37.740Z,6.45
2022-10-17T09:19:13.628Z,7.00
2022-10-17T09:24:40.572Z,6.30
2022-10-17T09:27:22.936Z,6.35
2022-10-17T09:29:55.684Z,6.53
2022-10-17T09:32:25.573Z,6.72
2022-10-17T09:34:53.956Z,6.32
2022-10-17T09:37:29.426Z,6.53
2022-10-17T09:39:56.512Z,6.60
2022-10-17T09:42:26.742Z,6.30
2022-10-17T09:45:24.720Z,6.15
2022-10-17T09:48:18.147Z,6.07
2022-10-17T09:50:53.885Z,6.75
2022-10-17T09:53:41.452Z,6.50
2022-10-17T09:56:18.713Z,6.80
2022-10-17T09:58:54.520Z,6.43
2022-10-17T10:01:30.984Z,7.00
2022-10-17T10:04:16.633Z,6.93
2022-10-17T10:07:05.514Z,7.05
2022-10-17T10:09:36.895Z,7.82
2022-10-17T10:12:20.818Z,7.50
2022-10-17T10:14:51.289Z,6.85
2022-10-17T10:17:43.160Z,7.45
2022-10-17T10:20:36.015Z,7.18
2022-10-17T10:23:07.038Z,7.68
2022-10-17T10:25:35.775Z,7.43
2022-10-17T10:28:10.283Z,6.68
2022-10-17T10:30:39.799Z,7.65
2022-10-17T10:33:12.176Z,7.68
2022-10-17T10:35:39.520Z,7.60
2022-10-17T10:38:17.713Z,7.40
2022-10-17T10:40:50.889Z,7.15
2022-10-17T10:43:44.835Z,8.10
2022-10-17T10:46:27.926Z,7.95
2022-10-17T10:49:01.332Z,7.95
2022-10-17T10:51:55.337Z,7.80
2022-10-17T10:54:30.006Z,7.85
2022-10-17T10:57:00.899Z,7.32
2022-10-17T10:59:38.653Z,8.23
2022-10-17T11:02:36.206Z,7.80
2022-10-17T11:05:40.160Z,8.38
2022-10-17T11:08:25.630Z,8.48
2022-10-17T11:11:31.078Z,8.20
2022-10-17T11:14:13.000Z,8.20
2022-10-17T11:17:28.995Z,8.13
2022-10-17T11:20:53.225Z,7.85
2022-10-17T11:23:40.136Z,8.13
2022-10-17T11:26:26.858Z,8.40
2022-10-17T11:28:55.905Z,9.02
2022-10-17T11:31:32.000Z,8.30
2022-10-17T11:34:19.402Z,8.85
2022-10-17T11:36:52.142Z,8.82
2022-10-17T11:39:31.849Z,8.48
2022-10-17T11:42:07.295Z,8.43
2022-10-17T11:44:42.124Z,8.43
2022-10-17T11:47:37.348Z,8.35
2022-10-17T11:53:27.397Z,7.45
2022-10-17T11:55:58.451Z,7.70
2022-10-17T11:58:59.683Z,7.88
2022-10-17T12:01:55.124Z,7.43
2022-10-17T12:05:02.250Z,7.35
2022-10-17T12:08:16.848Z,7.65
2022-10-17T12:11:25.447Z,7.65
2022-10-17T12:13:56.269Z,7.47
2022-10-17T12:16:36.542Z,6.68
2022-10-17T12:19:06.343Z,6.72
2022-10-17T12:22:20.706Z,6.65
2022-10-17T12:25:02.679Z,6.93
2022-10-17T12:27:36.064Z,6.40
2022-10-17T12:30:16.716Z,6.57
2022-10-17T12:33:39.177Z,5.75
2022-10-17T12:36:28.318Z,6.20
2022-10-17T12:39:01.535Z,5.75
2022-10-17T12:41:40.914Z,5.70
2022-10-17T12:44:14.080Z,5.60
2022-10-17T12:46:44.514Z,5.43
2022-10-17T12:49:53.169Z,5.93
2022-10-17T12:52:35.087Z,5.93
2022-10-17T12:55:14.221Z,5.97
2022-10-17T12:58:08.160Z,5.38
2022-10-17T13:01:22.547Z,5.85
2022-10-17T13:03:48.485Z,5.65
2022-10-17T13:06:25.220Z,5.65
2022-10-17T13:09:09.892Z,5.05
2022-10-17T13:11:39.531Z,5.18
2022-10-17T13:14:16.403Z,5.00
2022-10-17T13:17:00.593Z,5.20
2022-10-17T13:19:39.935Z,5.40
2022-10-17T13:22:31.988Z,5.47
2022-10-17T13:25:14.572Z,5.72
2022-10-17T13:27:41.843Z,5.07
2022-10-17T13:30:32.522Z,5.30
2022-10-17T13:33:00.863Z,5.20
2022-10-17T13:38:32.377Z,3.35
2022-10-17T13:41:16.577Z,2.45
2022-10-17T13:43:49.782Z,2.50
2022-10-17T13:46:37.803Z,2.50
2022-10-17T13:49:15.615Z,2.00
2022-10-17T13:51:49.084Z,2.20
2022-10-17T13:54:40.709Z,2.35
2022-10-17T13:57:29.125Z,2.20
2022-10-17T14:00:09.958Z,2.05
2022-10-17T14:02:41.922Z,2.70
2022-10-17T14:05:17.124Z,2.08
2022-10-17T14:08:16.940Z,2.15
2022-10-17T14:10:45.280Z,2.00
2022-10-17T14:13:22.919Z,2.10
2022-10-17T14:15:51.652Z,1.83
2022-10-17T14:18:27.835Z,2.92
2022-10-17T14:23:44.968Z,2.17
2022-10-17T14:26:16.746Z,1.80
2022-10-17T14:28:48.561Z,2.00
2022-10-17T14:31:15.617Z,1.67
2022-10-17T14:33:50.796Z,2.00
2022-10-17T14:36:20.356Z,1.90
2022-10-17T14:38:51.434Z,1.90
2022-10-17T14:41:47.825Z,1.70
2022-10-17T14:44:22.675Z,1.73
2022-10-17T14:46:56.288Z,1.65
2022-10-17T14:49:34.372Z,1.60
2022-10-17T14:52:18.581Z,1.70
2022-10-17T14:54:48.555Z,1.88
2022-10-17T14:57:44.777Z,1.60
2022-10-17T15:00:17.619Z,1.83
2022-10-17T15:02:46.453Z,1.75
2022-10-17T15:05:14.623Z,2.03
2022-10-17T15:07:42.859Z,2.38
2022-10-17T15:10:32.000Z,1.88
2022-10-17T15:13:16.420Z,1.80
2022-10-17T15:15:51.801Z,1.70
2022-10-17T15:18:19.758Z,1.75
2022-10-17T15:20:46.855Z,1.80
2022-10-17T15:23:13.905Z,1.58
2022-10-17T15:25:41.023Z,2.08
2022-10-17T15:28:10.854Z,1.90
2022-10-17T15:30:38.028Z,1.60
2022-10-17T15:33:05.232Z,2.03
2022-10-17T15:35:32.370Z,1.80
2022-10-17T15:37:59.448Z,1.73
2022-10-17T15:40:29.310Z,2.10
2022-10-17T15:42:57.410Z,2.28
2022-10-17T15:45:24.736Z,2.05
2022-10-17T15:48:00.863Z,2.35
2022-10-17T15:50:30.482Z,2.22
2022-10-17T15:52:57.719Z,2.30
2022-10-17T15:55:25.218Z,2.30
2022-10-17T15:57:52.370Z,2.20
2022-10-17T16:00:24.791Z,2.30
2022-10-17T16:02:52.035Z,2.30
2022-10-17T16:05:26.131Z,2.45
2022-10-17T16:07:54.275Z,2.50
2022-10-17T16:10:22.879Z,2.70
2022-10-17T16:12:50.640Z,2.55
2022-10-17T16:15:25.244Z,3.05
2022-10-17T16:17:54.654Z,2.90
2022-10-17T16:20:24.107Z,3.17
2022-10-17T16:22:51.927Z,3.13
2022-10-17T16:25:45.572Z,3.65
2022-10-17T16:28:12.854Z,3.40
2022-10-17T16:30:44.863Z,3.30
2022-10-17T16:33:12.565Z,3.55
2022-10-17T16:35:39.791Z,3.08
2022-10-17T16:38:08.587Z,3.53
2022-10-17T16:40:39.244Z,3.72
2022-10-17T16:43:07.802Z,3.90
2022-10-17T16:45:36.077Z,4.25
2022-10-17T16:48:03.424Z,4.32
2022-10-17T16:50:35.226Z,4.28
2022-10-17T16:53:03.943Z,4.13
2022-10-17T16:55:31.121Z,4.47
2022-10-17T16:57:59.897Z,4.50
2022-10-17T17:00:27.444Z,4.70
2022-10-17T17:02:54.443Z,4.68
2022-10-17T17:05:21.512Z,4.82
2022-10-17T17:07:48.692Z,5.30
2022-10-17T17:10:15.981Z,5.15
2022-10-17T17:12:43.177Z,5.32
2022-10-17T17:15:10.307Z,5.18
2022-10-17T17:17:49.636Z,5.70
2022-10-17T17:20:19.639Z,5.75
2022-10-17T17:22:46.942Z,5.68
2022-10-17T17:25:14.419Z,6.07
2022-10-17T17:27:41.524Z,5.55
2022-10-17T17:30:09.243Z,6.07
2022-10-17T17:32:36.417Z,6.10
2022-10-17T17:35:03.751Z,6.38
2022-10-17T17:37:31.531Z,6.95
2022-10-17T17:40:02.148Z,5.88
2022-10-17T17:42:29.239Z,6.95
2022-10-17T17:44:56.500Z,7.20
2022-10-17T17:47:23.631Z,7.68
2022-10-17T17:49:50.645Z,7.05
2022-10-17T17:52:17.981Z,7.03
2022-10-17T17:54:45.711Z,7.20
2022-10-17T17:57:12.992Z,7.43
2022-10-17T17:59:41.433Z,7.63
2022-10-17T18:02:11.079Z,7.05
2022-10-17T18:04:38.523Z,7.72
2022-10-17T18:07:06.079Z,7.90
2022-10-17T18:09:34.375Z,8.50
2022-10-17T18:12:10.269Z,8.13
2022-10-17T18:14:37.791Z,8.20
2022-10-17T18:17:07.036Z,9.02
2022-10-17T18:19:34.464Z,9.13
2022-10-17T18:22:01.890Z,8.98
2022-10-17T18:24:29.130Z,8.82
2022-10-17T18:26:59.759Z,8.18
2022-10-17T18:29:29.398Z,9.15
2022-10-17T18:31:56.859Z,9.93
2022-10-17T18:34:24.661Z,9.40
2022-10-17T18:36:52.886Z,9.43
2022-10-17T18:39:20.133Z,10.82
2022-10-17T18:41:47.299Z,10.23
2022-10-17T18:44:15.618Z,10.80
2022-10-17T18:46:43.277Z,11.00
2022-10-17T18:49:15.754Z,11.70
2022-10-17T18:51:43.226Z,12.23
2022-10-17T18:54:20.424Z,11.93
2022-10-17T18:56:53.183Z,12.85
2022-10-17T18:59:21.194Z,12.80
2022-10-17T19:01:48.986Z,12.27
2022-10-17T19:04:16.501Z,12.50
2022-10-17T19:06:44.005Z,12.05
2022-10-17T19:09:13.971Z,13.30
2022-10-17T19:11:43.338Z,11.98
2022-10-17T19:14:13.524Z,13.02
2022-10-17T19:16:47.812Z,13.65
2022-10-17T19:19:35.216Z,13.10
2022-10-17T19:22:03.696Z,13.18
2022-10-17T19:24:31.064Z,12.98
2022-10-17T19:27:04.080Z,15.07
2022-10-17T19:29:31.986Z,13.30
2022-10-17T19:32:01.077Z,13.93
2022-10-17T19:34:28.795Z,13.52
2022-10-17T19:36:56.077Z,13.68
2022-10-17T19:39:25.121Z,14.20
2022-10-17T19:41:52.726Z,13.23
2022-10-17T19:44:32.041Z,14.00
2022-10-17T19:46:59.414Z,13.93
2022-10-17T19:49:27.007Z,15.18
2022-10-17T19:51:54.098Z,14.50
2022-10-17T19:54:21.518Z,14.38
2022-10-17T19:56:49.974Z,15.43
2022-10-17T19:59:18.755Z,14.90
2022-10-17T20:01:46.603Z,14.23
2022-10-17T20:04:15.069Z,14.40
2022-10-17T20:06:42.922Z,14.60
2022-10-17T20:09:15.645Z,14.57
2022-10-17T20:11:44.935Z,15.05
2022-10-17T20:14:12.018Z,14.95
2022-10-17T20:16:42.177Z,15.52
2022-10-17T20:19:12.925Z,14.35
2022-10-17T20:21:40.649Z,15.15
2022-10-17T20:24:12.809Z,13.70
2022-10-17T20:26:40.727Z,14.48
2022-10-17T20:29:28.235Z,14.90
2022-10-17T20:31:57.821Z,15.05
2022-10-17T20:34:25.165Z,14.05
2022-10-17T20:36:52.482Z,14.75
2022-10-17T20:39:20.819Z,14.65
2022-10-17T20:41:48.500Z,14.82
2022-10-17T20:44:18.592Z,16.65
2022-10-17T20:47:00.731Z,15.25
2022-10-17T20:49:29.925Z,14.30
2022-10-17T20:51:57.648Z,14.93
2022-10-17T20:54:25.575Z,15.02
2022-10-17T20:56:54.783Z,14.60
2022-10-17T20:59:22.160Z,14.40
2022-10-17T21:01:53.984Z,14.70
2022-10-17T21:04:44.625Z,16.17
2022-10-17T21:07:08.406Z,15.00
2022-10-17T21:09:35.516Z,16.40
2022-10-17T21:12:05.355Z,15.43
2022-10-17T21:14:33.469Z,16.33
2022-10-17T21:17:04.744Z,16.50
2022-10-17T21:19:32.536Z,16.48
2022-10-17T21:21:59.714Z,16.05
2022-10-17T21:24:27.307Z,17.13
2022-10-17T21:26:57.055Z,16.67
2022-10-17T21:29:24.710Z,17.05
2022-10-17T21:31:55.027Z,16.17
2022-10-17T21:34:26.346Z,15.10
2022-10-17T21:36:53.866Z,15.48
2022-10-17T21:39:22.870Z,15.65
2022-10-17T21:41:49.923Z,15.68
2022-10-17T21:44:23.913Z,16.42
2022-10-17T21:46:52.122Z,14.90
2022-10-17T21:49:22.648Z,15.18
2022-10-17T21:51:51.473Z,17.00
2022-10-17T21:54:20.870Z,16.05
2022-10-17T21:56:48.048Z,16.77
2022-10-17T21:59:15.422Z,16.02
2022-10-17T22:01:45.305Z,16.98
2022-10-17T22:04:16.155Z,17.13
2022-10-17T22:06:45.618Z,15.52
2022-10-17T22:09:26.055Z,17.30
2022-10-17T22:11:56.401Z,16.77
2022-10-17T22:14:27.288Z,18.95
2022-10-17T22:16:55.181Z,17.30
2022-10-17T22:19:26.511Z,14.88
2022-10-17T22:21:54.576Z,16.17
2022-10-17T22:24:22.856Z,15.27
2022-10-17T22:26:50.358Z,14.93
2022-10-17T22:29:17.807Z,16.92
2022-10-17T22:31:45.033Z,16.42
2022-10-17T22:34:14.675Z,14.77
2022-10-17T22:36:42.666Z,17.17
2022-10-17T22:39:10.357Z,17.55
2022-10-17T22:41:37.406Z,18.08
2022-10-17T22:44:05.106Z,16.67
2022-10-17T22:46:32.127Z,17.08
2022-10-17T22:48:59.696Z,17.48
2022-10-17T22:51:27.590Z,14.55
2022-10-17T22:53:55.019Z,15.38
2022-10-17T22:56:23.532Z,15.63
2022-10-17T22:58:51.514Z,16.85
2022-10-17T23:01:23.455Z,15.10
2022-10-17T23:03:52.436Z,17.70
2022-10-17T23:06:20.455Z,15.70
2022-10-17T23:08:48.282Z,15.73
2022-10-17T23:11:16.489Z,15.40
2022-10-17T23:13:43.548Z,16.75
2022-10-17T23:16:10.791Z,16.50
2022-10-17T23:18:39.215Z,16.00
2022-10-17T23:21:07.325Z,16.35
2022-10-17T23:23:34.672Z,17.00
2022-10-17T23:26:14.097Z,16.60
2022-10-17T23:28:42.771Z,15.82
2022-10-17T23:31:21.483Z,16.45
2022-10-17T23:33:49.997Z,15.05
2022-10-17T23:36:19.714Z,15.93
2022-10-17T23:38:47.919Z,17.95
2022-10-17T23:41:16.357Z,18.05
2022-10-17T23:43:44.097Z,16.38
2022-10-17T23:46:11.475Z,15.10
2022-10-17T23:48:39.118Z,17.05
2022-10-17T23:51:07.690Z,13.82
2022-10-17T23:53:36.459Z,15.63
2022-10-17T23:56:04.613Z,14.75
2022-10-17T23:58:31.875Z,15.52
